sensor_id;sensor_type;location;lat;lon;timestamp;temperature;humidity
38020;DHT22;23829;51.350;17.286;2022-12-20T00:00:45;16.30;41.10
38020;DHT22;23829;51.350;17.286;2022-12-20T00:03:15;16.50;40.90
38020;DHT22;23829;51.350;17.286;2022-12-20T00:05:43;16.30;41.00
38020;DHT22;23829;51.350;17.286;2022-12-20T00:08:09;16.60;40.80
38020;DHT22;23829;51.350;17.286;2022-12-20T00:10:37;16.60;40.50
38020;DHT22;23829;51.350;17.286;2022-12-20T00:13:04;16.80;40.40
38020;DHT22;23829;51.350;17.286;2022-12-20T00:15:31;16.80;40.10
38020;DHT22;23829;51.350;17.286;2022-12-20T00:17:58;16.80;40.20
38020;DHT22;23829;51.350;17.286;2022-12-20T00:20:26;16.80;40.10
38020;DHT22;23829;51.350;17.286;2022-12-20T00:22:53;16.80;39.90
38020;DHT22;23829;51.350;17.286;2022-12-20T00:25:20;16.80;39.90
38020;DHT22;23829;51.350;17.286;2022-12-20T00:27:47;16.90;39.80
38020;DHT22;23829;51.350;17.286;2022-12-20T00:30:15;16.70;40.70
38020;DHT22;23829;51.350;17.286;2022-12-20T00:32:43;16.60;40.30
38020;DHT22;23829;51.350;17.286;2022-12-20T00:35:09;16.70;40.10
38020;DHT22;23829;51.350;17.286;2022-12-20T00:37:36;17.20;39.30
38020;DHT22;23829;51.350;17.286;2022-12-20T00:40:04;17.60;38.40
38020;DHT22;23829;51.350;17.286;2022-12-20T00:42:31;17.80;38.30
38020;DHT22;23829;51.350;17.286;2022-12-20T00:44:58;17.80;38.00
38020;DHT22;23829;51.350;17.286;2022-12-20T00:47:24;17.70;38.00
38020;DHT22;23829;51.350;17.286;2022-12-20T00:49:51;17.80;38.00
38020;DHT22;23829;51.350;17.286;2022-12-20T00:52:18;17.70;37.90
38020;DHT22;23829;51.350;17.286;2022-12-20T00:54:44;17.90;37.60
38020;DHT22;23829;51.350;17.286;2022-12-20T00:57:11;17.90;37.50
38020;DHT22;23829;51.350;17.286;2022-12-20T00:59:37;18.10;37.20
38020;DHT22;23829;51.350;17.286;2022-12-20T01:02:06;18.10;37.00
38020;DHT22;23829;51.350;17.286;2022-12-20T01:04:33;18.00;37.00
38020;DHT22;23829;51.350;17.286;2022-12-20T01:06:59;18.10;37.00
38020;DHT22;23829;51.350;17.286;2022-12-20T01:09:26;17.60;37.30
38020;DHT22;23829;51.350;17.286;2022-12-20T01:11:52;17.60;37.50
38020;DHT22;23829;51.350;17.286;2022-12-20T01:14:18;17.40;37.90
38020;DHT22;23829;51.350;17.286;2022-12-20T01:16:46;17.40;37.80
38020;DHT22;23829;51.350;17.286;2022-12-20T01:19:16;17.50;37.80
38020;DHT22;23829;51.350;17.286;2022-12-20T01:21:43;17.40;37.60
38020;DHT22;23829;51.350;17.286;2022-12-20T01:24:14;17.70;37.30
38020;DHT22;23829;51.350;17.286;2022-12-20T01:26:41;17.60;37.20
38020;DHT22;23829;51.350;17.286;2022-12-20T01:29:08;17.40;37.50
38020;DHT22;23829;51.350;17.286;2022-12-20T01:31:35;17.60;37.30
38020;DHT22;23829;51.350;17.286;2022-12-20T01:34:01;17.50;37.30
38020;DHT22;23829;51.350;17.286;2022-12-20T01:36:33;17.20;37.70
38020;DHT22;23829;51.350;17.286;2022-12-20T01:39:06;17.00;37.90
38020;DHT22;23829;51.350;17.286;2022-12-20T01:41:35;17.20;37.80
38020;DHT22;23829;51.350;17.286;2022-12-20T01:46:53;17.00;38.00
38020;DHT22;23829;51.350;17.286;2022-12-20T01:52:01;16.90;38.10
38020;DHT22;23829;51.350;17.286;2022-12-20T01:54:45;16.50;38.70
38020;DHT22;23829;51.350;17.286;2022-12-20T01:57:26;16.40;39.00
38020;DHT22;23829;51.350;17.286;2022-12-20T01:59:55;16.30;39.10
38020;DHT22;23829;51.350;17.286;2022-12-20T02:02:22;16.40;38.90
38020;DHT22;23829;51.350;17.286;2022-12-20T02:04:49;16.50;38.90
38020;DHT22;23829;51.350;17.286;2022-12-20T02:07:20;16.30;39.10
38020;DHT22;23829;51.350;17.286;2022-12-20T02:09:49;16.10;39.50
38020;DHT22;23829;51.350;17.286;2022-12-20T02:12:24;16.10;39.40
38020;DHT22;23829;51.350;17.286;2022-12-20T02:21:01;15.90;39.70
38020;DHT22;23829;51.350;17.286;2022-12-20T02:29:34;16.00;39.70
38020;DHT22;23829;51.350;17.286;2022-12-20T02:32:35;15.80;39.90
38020;DHT22;23829;51.350;17.286;2022-12-20T02:34:54;15.90;39.70
38020;DHT22;23829;51.350;17.286;2022-12-20T02:37:21;16.10;39.10
38020;DHT22;23829;51.350;17.286;2022-12-20T02:39:47;16.30;38.50
38020;DHT22;23829;51.350;17.286;2022-12-20T02:42:17;16.40;38.40
38020;DHT22;23829;51.350;17.286;2022-12-20T02:44:59;16.40;38.20
38020;DHT22;23829;51.350;17.286;2022-12-20T02:47:47;16.40;38.20
38020;DHT22;23829;51.350;17.286;2022-12-20T02:50:20;16.30;38.10
38020;DHT22;23829;51.350;17.286;2022-12-20T02:52:48;16.00;38.40
38020;DHT22;23829;51.350;17.286;2022-12-20T02:55:16;16.10;38.50
38020;DHT22;23829;51.350;17.286;2022-12-20T02:57:50;16.10;38.20
38020;DHT22;23829;51.350;17.286;2022-12-20T03:00:19;16.00;38.40
38020;DHT22;23829;51.350;17.286;2022-12-20T03:02:48;15.90;38.30
38020;DHT22;23829;51.350;17.286;2022-12-20T03:05:38;15.80;38.70
38020;DHT22;23829;51.350;17.286;2022-12-20T03:08:08;16.00;38.40
38020;DHT22;23829;51.350;17.286;2022-12-20T03:10:34;16.20;37.70
38020;DHT22;23829;51.350;17.286;2022-12-20T03:13:01;15.80;38.40
38020;DHT22;23829;51.350;17.286;2022-12-20T03:15:30;16.00;38.20
38020;DHT22;23829;51.350;17.286;2022-12-20T03:17:59;15.90;38.10
38020;DHT22;23829;51.350;17.286;2022-12-20T03:20:29;16.00;38.20
38020;DHT22;23829;51.350;17.286;2022-12-20T03:22:56;16.00;38.10
38020;DHT22;23829;51.350;17.286;2022-12-20T03:25:22;16.10;37.80
38020;DHT22;23829;51.350;17.286;2022-12-20T03:27:49;16.10;37.80
38020;DHT22;23829;51.350;17.286;2022-12-20T03:30:16;16.10;37.90
38020;DHT22;23829;51.350;17.286;2022-12-20T03:32:43;16.20;37.70
38020;DHT22;23829;51.350;17.286;2022-12-20T03:35:10;16.10;37.80
38020;DHT22;23829;51.350;17.286;2022-12-20T03:37:39;16.30;37.80
38020;DHT22;23829;51.350;17.286;2022-12-20T03:40:07;16.30;37.70
38020;DHT22;23829;51.350;17.286;2022-12-20T03:42:34;16.40;37.50
38020;DHT22;23829;51.350;17.286;2022-12-20T03:45:01;16.50;37.20
38020;DHT22;23829;51.350;17.286;2022-12-20T03:47:30;16.70;37.00
38020;DHT22;23829;51.350;17.286;2022-12-20T03:49:57;16.70;36.80
38020;DHT22;23829;51.350;17.286;2022-12-20T03:52:24;16.70;37.00
38020;DHT22;23829;51.350;17.286;2022-12-20T03:54:50;16.80;36.80
38020;DHT22;23829;51.350;17.286;2022-12-20T03:57:20;16.90;36.60
38020;DHT22;23829;51.350;17.286;2022-12-20T03:59:49;16.90;36.40
38020;DHT22;23829;51.350;17.286;2022-12-20T04:02:17;16.80;36.60
38020;DHT22;23829;51.350;17.286;2022-12-20T04:04:44;17.00;36.30
38020;DHT22;23829;51.350;17.286;2022-12-20T04:07:11;17.20;36.00
38020;DHT22;23829;51.350;17.286;2022-12-20T04:09:41;17.40;35.90
38020;DHT22;23829;51.350;17.286;2022-12-20T04:12:11;17.20;35.90
38020;DHT22;23829;51.350;17.286;2022-12-20T04:14:39;17.00;36.10
38020;DHT22;23829;51.350;17.286;2022-12-20T04:17:06;16.90;36.20
38020;DHT22;23829;51.350;17.286;2022-12-20T04:19:33;17.10;36.00
38020;DHT22;23829;51.350;17.286;2022-12-20T04:22:00;17.20;35.70
38020;DHT22;23829;51.350;17.286;2022-12-20T04:24:34;17.10;35.60
38020;DHT22;23829;51.350;17.286;2022-12-20T04:27:10;16.80;36.10
38020;DHT22;23829;51.350;17.286;2022-12-20T04:29:36;16.70;36.40
38020;DHT22;23829;51.350;17.286;2022-12-20T04:32:05;16.90;36.00
38020;DHT22;23829;51.350;17.286;2022-12-20T04:34:31;17.30;35.60
38020;DHT22;23829;51.350;17.286;2022-12-20T04:36:58;17.10;35.60
38020;DHT22;23829;51.350;17.286;2022-12-20T04:39:36;17.30;35.40
38020;DHT22;23829;51.350;17.286;2022-12-20T04:42:22;17.50;35.00
38020;DHT22;23829;51.350;17.286;2022-12-20T04:44:50;17.70;34.70
38020;DHT22;23829;51.350;17.286;2022-12-20T04:47:22;17.70;34.60
38020;DHT22;23829;51.350;17.286;2022-12-20T04:49:51;17.70;34.50
38020;DHT22;23829;51.350;17.286;2022-12-20T04:52:17;17.50;34.60
38020;DHT22;23829;51.350;17.286;2022-12-20T04:55:02;17.50;34.80
38020;DHT22;23829;51.350;17.286;2022-12-20T04:57:31;17.50;34.70
38020;DHT22;23829;51.350;17.286;2022-12-20T04:59:59;17.40;34.80
38020;DHT22;23829;51.350;17.286;2022-12-20T05:02:25;17.30;35.00
38020;DHT22;23829;51.350;17.286;2022-12-20T05:04:57;17.40;34.80
38020;DHT22;23829;51.350;17.286;2022-12-20T05:07:24;17.20;34.90
38020;DHT22;23829;51.350;17.286;2022-12-20T05:09:52;16.80;35.60
38020;DHT22;23829;51.350;17.286;2022-12-20T05:12:19;16.70;35.70
38020;DHT22;23829;51.350;17.286;2022-12-20T05:14:45;16.80;35.60
38020;DHT22;23829;51.350;17.286;2022-12-20T05:17:15;16.80;35.60
38020;DHT22;23829;51.350;17.286;2022-12-20T05:19:41;16.70;35.90
38020;DHT22;23829;51.350;17.286;2022-12-20T05:22:09;16.60;35.90
38020;DHT22;23829;51.350;17.286;2022-12-20T05:25:14;16.70;35.70
38020;DHT22;23829;51.350;17.286;2022-12-20T05:28:04;16.80;35.50
38020;DHT22;23829;51.350;17.286;2022-12-20T05:30:34;16.50;35.90
38020;DHT22;23829;51.350;17.286;2022-12-20T05:33:00;16.40;36.10
38020;DHT22;23829;51.350;17.286;2022-12-20T05:35:27;16.50;35.90
38020;DHT22;23829;51.350;17.286;2022-12-20T05:38:01;16.50;35.90
38020;DHT22;23829;51.350;17.286;2022-12-20T05:40:29;16.60;35.70
38020;DHT22;23829;51.350;17.286;2022-12-20T05:42:56;16.60;35.70
38020;DHT22;23829;51.350;17.286;2022-12-20T05:45:32;16.70;35.60
38020;DHT22;23829;51.350;17.286;2022-12-20T05:48:03;17.00;35.10
38020;DHT22;23829;51.350;17.286;2022-12-20T05:50:31;16.90;35.10
38020;DHT22;23829;51.350;17.286;2022-12-20T05:53:21;16.90;35.30
38020;DHT22;23829;51.350;17.286;2022-12-20T05:55:53;17.10;35.30
38020;DHT22;23829;51.350;17.286;2022-12-20T05:58:25;17.40;34.90
38020;DHT22;23829;51.350;17.286;2022-12-20T06:00:56;17.40;34.60
38020;DHT22;23829;51.350;17.286;2022-12-20T06:03:24;17.20;35.00
38020;DHT22;23829;51.350;17.286;2022-12-20T06:05:51;17.20;35.10
38020;DHT22;23829;51.350;17.286;2022-12-20T06:20:05;17.30;34.70
38020;DHT22;23829;51.350;17.286;2022-12-20T06:22:32;17.00;35.70
38020;DHT22;23829;51.350;17.286;2022-12-20T06:24:58;17.30;35.30
38020;DHT22;23829;51.350;17.286;2022-12-20T06:27:29;17.40;35.00
38020;DHT22;23829;51.350;17.286;2022-12-20T06:30:25;17.40;35.10
38020;DHT22;23829;51.350;17.286;2022-12-20T06:33:12;17.60;34.60
38020;DHT22;23829;51.350;17.286;2022-12-20T06:35:38;17.90;34.30
38020;DHT22;23829;51.350;17.286;2022-12-20T06:38:06;18.00;34.10
38020;DHT22;23829;51.350;17.286;2022-12-20T06:40:34;18.10;33.80
38020;DHT22;23829;51.350;17.286;2022-12-20T06:43:01;17.90;34.10
38020;DHT22;23829;51.350;17.286;2022-12-20T06:45:28;17.50;34.60
38020;DHT22;23829;51.350;17.286;2022-12-20T06:47:56;17.70;34.40
38020;DHT22;23829;51.350;17.286;2022-12-20T06:50:23;17.70;34.40
38020;DHT22;23829;51.350;17.286;2022-12-20T06:52:50;17.80;34.40
38020;DHT22;23829;51.350;17.286;2022-12-20T06:55:16;17.90;34.50
38020;DHT22;23829;51.350;17.286;2022-12-20T06:57:44;17.80;34.40
38020;DHT22;23829;51.350;17.286;2022-12-20T07:00:12;17.60;34.70
38020;DHT22;23829;51.350;17.286;2022-12-20T07:02:39;17.80;34.50
38020;DHT22;23829;51.350;17.286;2022-12-20T07:05:05;17.90;34.20
38020;DHT22;23829;51.350;17.286;2022-12-20T07:07:32;17.80;34.30
38020;DHT22;23829;51.350;17.286;2022-12-20T07:09:58;17.70;34.60
38020;DHT22;23829;51.350;17.286;2022-12-20T07:12:25;17.90;34.30
38020;DHT22;23829;51.350;17.286;2022-12-20T07:14:51;18.10;33.90
38020;DHT22;23829;51.350;17.286;2022-12-20T07:17:18;18.00;34.10
38020;DHT22;23829;51.350;17.286;2022-12-20T07:19:44;17.90;34.20
38020;DHT22;23829;51.350;17.286;2022-12-20T07:22:11;18.10;34.00
38020;DHT22;23829;51.350;17.286;2022-12-20T07:24:37;17.90;34.10
38020;DHT22;23829;51.350;17.286;2022-12-20T07:27:05;17.90;34.30
38020;DHT22;23829;51.350;17.286;2022-12-20T07:29:33;17.80;34.40
38020;DHT22;23829;51.350;17.286;2022-12-20T07:31:59;17.70;34.70
38020;DHT22;23829;51.350;17.286;2022-12-20T07:34:25;17.50;34.90
38020;DHT22;23829;51.350;17.286;2022-12-20T07:36:52;17.70;34.80
38020;DHT22;23829;51.350;17.286;2022-12-20T07:39:18;17.60;35.00
38020;DHT22;23829;51.350;17.286;2022-12-20T07:41:45;17.60;35.00
38020;DHT22;23829;51.350;17.286;2022-12-20T07:44:15;17.50;35.10
38020;DHT22;23829;51.350;17.286;2022-12-20T07:46:42;17.30;35.40
38020;DHT22;23829;51.350;17.286;2022-12-20T07:49:08;17.30;35.50
38020;DHT22;23829;51.350;17.286;2022-12-20T07:51:46;17.40;35.50
38020;DHT22;23829;51.350;17.286;2022-12-20T07:54:21;17.40;35.40
38020;DHT22;23829;51.350;17.286;2022-12-20T07:56:55;17.50;35.30
38020;DHT22;23829;51.350;17.286;2022-12-20T07:59:44;17.70;35.00
38020;DHT22;23829;51.350;17.286;2022-12-20T08:02:16;18.10;34.70
38020;DHT22;23829;51.350;17.286;2022-12-20T08:04:44;18.00;34.40
38020;DHT22;23829;51.350;17.286;2022-12-20T08:07:10;17.70;34.70
38020;DHT22;23829;51.350;17.286;2022-12-20T08:09:40;17.70;35.00
38020;DHT22;23829;51.350;17.286;2022-12-20T08:12:07;17.70;35.00
38020;DHT22;23829;51.350;17.286;2022-12-20T08:14:35;17.60;35.30
38020;DHT22;23829;51.350;17.286;2022-12-20T08:17:01;17.70;35.30
38020;DHT22;23829;51.350;17.286;2022-12-20T08:19:28;17.80;35.00
38020;DHT22;23829;51.350;17.286;2022-12-20T08:21:54;17.70;35.20
38020;DHT22;23829;51.350;17.286;2022-12-20T08:24:24;17.60;35.50
38020;DHT22;23829;51.350;17.286;2022-12-20T08:26:50;17.60;35.20
38020;DHT22;23829;51.350;17.286;2022-12-20T08:29:17;17.90;35.00
38020;DHT22;23829;51.350;17.286;2022-12-20T08:31:43;18.00;34.80
38020;DHT22;23829;51.350;17.286;2022-12-20T08:34:09;18.00;34.70
38020;DHT22;23829;51.350;17.286;2022-12-20T08:36:36;18.00;34.80
38020;DHT22;23829;51.350;17.286;2022-12-20T08:39:04;17.90;34.70
38020;DHT22;23829;51.350;17.286;2022-12-20T08:41:33;18.10;34.60
38020;DHT22;23829;51.350;17.286;2022-12-20T08:44:00;18.30;34.40
38020;DHT22;23829;51.350;17.286;2022-12-20T08:46:26;18.00;34.60
38020;DHT22;23829;51.350;17.286;2022-12-20T08:48:52;18.00;35.00
38020;DHT22;23829;51.350;17.286;2022-12-20T08:51:19;18.30;34.70
38020;DHT22;23829;51.350;17.286;2022-12-20T08:53:45;18.20;34.50
38020;DHT22;23829;51.350;17.286;2022-12-20T08:56:16;18.30;34.50
38020;DHT22;23829;51.350;17.286;2022-12-20T08:58:43;18.40;34.40
38020;DHT22;23829;51.350;17.286;2022-12-20T09:01:13;18.30;34.40
38020;DHT22;23829;51.350;17.286;2022-12-20T09:03:40;18.20;34.70
38020;DHT22;23829;51.350;17.286;2022-12-20T09:06:09;17.90;35.10
38020;DHT22;23829;51.350;17.286;2022-12-20T09:08:37;17.70;35.40
38020;DHT22;23829;51.350;17.286;2022-12-20T09:11:12;17.80;35.40
38020;DHT22;23829;51.350;17.286;2022-12-20T09:13:44;18.00;35.40
38020;DHT22;23829;51.350;17.286;2022-12-20T09:16:13;18.00;35.30
38020;DHT22;23829;51.350;17.286;2022-12-20T09:18:39;17.90;35.50
38020;DHT22;23829;51.350;17.286;2022-12-20T09:21:07;17.80;35.60
38020;DHT22;23829;51.350;17.286;2022-12-20T09:23:35;17.90;35.60
38020;DHT22;23829;51.350;17.286;2022-12-20T09:26:04;17.90;35.40
38020;DHT22;23829;51.350;17.286;2022-12-20T09:28:31;18.10;35.20
38020;DHT22;23829;51.350;17.286;2022-12-20T09:31:03;18.20;35.10
38020;DHT22;23829;51.350;17.286;2022-12-20T09:33:30;18.20;35.00
38020;DHT22;23829;51.350;17.286;2022-12-20T09:35:57;18.30;34.80
38020;DHT22;23829;51.350;17.286;2022-12-20T09:38:24;18.30;34.70
38020;DHT22;23829;51.350;17.286;2022-12-20T09:40:53;18.20;34.90
38020;DHT22;23829;51.350;17.286;2022-12-20T09:43:21;18.10;35.10
38020;DHT22;23829;51.350;17.286;2022-12-20T09:45:58;18.40;34.80
38020;DHT22;23829;51.350;17.286;2022-12-20T09:48:29;18.60;34.40
38020;DHT22;23829;51.350;17.286;2022-12-20T09:53:53;18.70;34.20
38020;DHT22;23829;51.350;17.286;2022-12-20T09:56:29;18.90;33.80
38020;DHT22;23829;51.350;17.286;2022-12-20T09:59:02;18.70;34.10
38020;DHT22;23829;51.350;17.286;2022-12-20T10:01:31;18.60;34.10
38020;DHT22;23829;51.350;17.286;2022-12-20T10:04:05;18.70;34.00
38020;DHT22;23829;51.350;17.286;2022-12-20T10:15:41;19.00;33.60
38020;DHT22;23829;51.350;17.286;2022-12-20T10:21:35;18.90;33.60
38020;DHT22;23829;51.350;17.286;2022-12-20T10:24:19;18.90;33.70
38020;DHT22;23829;51.350;17.286;2022-12-20T10:26:48;18.80;33.90
38020;DHT22;23829;51.350;17.286;2022-12-20T10:29:16;19.20;33.60
38020;DHT22;23829;51.350;17.286;2022-12-20T10:31:43;19.20;33.90
38020;DHT22;23829;51.350;17.286;2022-12-20T10:34:09;19.30;33.30
38020;DHT22;23829;51.350;17.286;2022-12-20T10:36:36;19.30;33.10
38020;DHT22;23829;51.350;17.286;2022-12-20T10:39:08;19.60;32.80
38020;DHT22;23829;51.350;17.286;2022-12-20T10:44:21;19.50;32.80
38020;DHT22;23829;51.350;17.286;2022-12-20T10:46:52;19.40;32.80
38020;DHT22;23829;51.350;17.286;2022-12-20T10:49:37;19.40;32.70
38020;DHT22;23829;51.350;17.286;2022-12-20T10:54:37;19.80;32.30
38020;DHT22;23829;51.350;17.286;2022-12-20T10:57:20;19.80;32.10
38020;DHT22;23829;51.350;17.286;2022-12-20T10:59:55;20.20;31.70
38020;DHT22;23829;51.350;17.286;2022-12-20T11:02:38;20.20;31.60
38020;DHT22;23829;51.350;17.286;2022-12-20T11:07:37;20.20;31.40
38020;DHT22;23829;51.350;17.286;2022-12-20T11:10:21;20.30;31.30
38020;DHT22;23829;51.350;17.286;2022-12-20T11:12:58;20.10;31.40
38020;DHT22;23829;51.350;17.286;2022-12-20T11:15:28;19.90;31.80
38020;DHT22;23829;51.350;17.286;2022-12-20T11:23:39;19.60;32.20
38020;DHT22;23829;51.350;17.286;2022-12-20T11:26:32;19.60;32.20
38020;DHT22;23829;51.350;17.286;2022-12-20T11:29:27;19.70;32.10
38020;DHT22;23829;51.350;17.286;2022-12-20T11:35:21;19.90;31.90
38020;DHT22;23829;51.350;17.286;2022-12-20T11:38:26;20.00;31.80
38020;DHT22;23829;51.350;17.286;2022-12-20T11:43:50;19.90;31.90
38020;DHT22;23829;51.350;17.286;2022-12-20T11:46:56;19.90;31.90
38020;DHT22;23829;51.350;17.286;2022-12-20T11:51:52;20.00;31.80
38020;DHT22;23829;51.350;17.286;2022-12-20T11:55:05;19.90;32.00
38020;DHT22;23829;51.350;17.286;2022-12-20T11:58:06;20.10;31.90
38020;DHT22;23829;51.350;17.286;2022-12-20T12:00:38;20.30;32.10
38020;DHT22;23829;51.350;17.286;2022-12-20T12:03:19;20.50;31.30
38020;DHT22;23829;51.350;17.286;2022-12-20T12:06:21;20.30;31.50
38020;DHT22;23829;51.350;17.286;2022-12-20T12:12:07;20.00;32.00
38020;DHT22;23829;51.350;17.286;2022-12-20T12:14:38;20.40;31.50
38020;DHT22;23829;51.350;17.286;2022-12-20T12:17:12;20.50;31.90
38020;DHT22;23829;51.350;17.286;2022-12-20T12:19:45;20.80;30.90
38020;DHT22;23829;51.350;17.286;2022-12-20T12:22:22;20.80;30.70
38020;DHT22;23829;51.350;17.286;2022-12-20T12:24:53;20.90;30.50
38020;DHT22;23829;51.350;17.286;2022-12-20T12:27:24;20.90;30.50
38020;DHT22;23829;51.350;17.286;2022-12-20T12:29:56;21.00;30.50
38020;DHT22;23829;51.350;17.286;2022-12-20T12:32:28;20.90;30.50
38020;DHT22;23829;51.350;17.286;2022-12-20T12:43:27;20.60;30.70
38020;DHT22;23829;51.350;17.286;2022-12-20T12:46:10;20.50;30.90
38020;DHT22;23829;51.350;17.286;2022-12-20T12:48:42;20.20;31.40
38020;DHT22;23829;51.350;17.286;2022-12-20T12:51:11;20.20;31.60
38020;DHT22;23829;51.350;17.286;2022-12-20T12:53:53;19.90;31.80
38020;DHT22;23829;51.350;17.286;2022-12-20T13:01:53;20.20;31.60
38020;DHT22;23829;51.350;17.286;2022-12-20T13:04:28;20.30;31.40
38020;DHT22;23829;51.350;17.286;2022-12-20T13:07:00;20.50;31.10
38020;DHT22;23829;51.350;17.286;2022-12-20T13:11:55;20.30;31.40
38020;DHT22;23829;51.350;17.286;2022-12-20T13:19:51;20.10;31.60
38020;DHT22;23829;51.350;17.286;2022-12-20T13:22:21;20.30;31.60
38020;DHT22;23829;51.350;17.286;2022-12-20T13:24:56;20.20;31.40
38020;DHT22;23829;51.350;17.286;2022-12-20T13:27:27;20.30;31.50
38020;DHT22;23829;51.350;17.286;2022-12-20T13:29:58;20.20;31.50
38020;DHT22;23829;51.350;17.286;2022-12-20T13:51:04;19.90;32.00
38020;DHT22;23829;51.350;17.286;2022-12-20T13:53:33;19.90;31.90
38020;DHT22;23829;51.350;17.286;2022-12-20T13:56:28;19.90;31.80
38020;DHT22;23829;51.350;17.286;2022-12-20T13:59:03;19.70;32.20
38020;DHT22;23829;51.350;17.286;2022-12-20T14:01:32;19.40;32.60
38020;DHT22;23829;51.350;17.286;2022-12-20T14:04:03;19.00;33.10
38020;DHT22;23829;51.350;17.286;2022-12-20T14:06:32;19.10;33.10
38020;DHT22;23829;51.350;17.286;2022-12-20T14:08:59;19.10;33.20
38020;DHT22;23829;51.350;17.286;2022-12-20T14:11:26;18.90;33.30
38020;DHT22;23829;51.350;17.286;2022-12-20T14:13:57;18.70;33.90
38020;DHT22;23829;51.350;17.286;2022-12-20T14:16:26;18.70;33.70
38020;DHT22;23829;51.350;17.286;2022-12-20T14:19:00;18.50;34.00
38020;DHT22;23829;51.350;17.286;2022-12-20T14:21:28;18.50;34.00
38020;DHT22;23829;51.350;17.286;2022-12-20T14:23:57;18.40;34.20
38020;DHT22;23829;51.350;17.286;2022-12-20T14:26:26;18.50;34.00
38020;DHT22;23829;51.350;17.286;2022-12-20T14:28:58;18.70;33.80
38020;DHT22;23829;51.350;17.286;2022-12-20T14:36:37;18.00;34.90
38020;DHT22;23829;51.350;17.286;2022-12-20T14:39:23;18.00;35.10
38020;DHT22;23829;51.350;17.286;2022-12-20T14:42:02;17.80;35.30
38020;DHT22;23829;51.350;17.286;2022-12-20T14:44:38;17.60;35.70
38020;DHT22;23829;51.350;17.286;2022-12-20T14:47:26;17.60;35.90
38020;DHT22;23829;51.350;17.286;2022-12-20T14:49:58;17.60;35.90
38020;DHT22;23829;51.350;17.286;2022-12-20T14:52:32;17.60;35.80
38020;DHT22;23829;51.350;17.286;2022-12-20T14:55:19;17.60;35.70
38020;DHT22;23829;51.350;17.286;2022-12-20T14:57:48;17.40;36.00
38020;DHT22;23829;51.350;17.286;2022-12-20T15:11:02;17.50;35.90
38020;DHT22;23829;51.350;17.286;2022-12-20T15:13:34;17.50;35.90
38020;DHT22;23829;51.350;17.286;2022-12-20T15:16:24;17.50;35.80
38020;DHT22;23829;51.350;17.286;2022-12-20T15:18:51;17.70;35.40
38020;DHT22;23829;51.350;17.286;2022-12-20T15:21:35;17.90;35.20
38020;DHT22;23829;51.350;17.286;2022-12-20T15:24:05;17.90;35.10
38020;DHT22;23829;51.350;17.286;2022-12-20T15:26:35;17.70;35.50
38020;DHT22;23829;51.350;17.286;2022-12-20T15:29:02;17.60;35.70
38020;DHT22;23829;51.350;17.286;2022-12-20T15:31:29;17.80;35.40
38020;DHT22;23829;51.350;17.286;2022-12-20T15:33:56;17.80;35.40
38020;DHT22;23829;51.350;17.286;2022-12-20T15:36:24;17.80;35.30
38020;DHT22;23829;51.350;17.286;2022-12-20T15:38:56;17.80;35.40
38020;DHT22;23829;51.350;17.286;2022-12-20T15:41:25;17.70;35.60
38020;DHT22;23829;51.350;17.286;2022-12-20T15:44:15;17.90;35.30
38020;DHT22;23829;51.350;17.286;2022-12-20T15:46:42;18.00;35.20
38020;DHT22;23829;51.350;17.286;2022-12-20T15:49:18;17.90;35.30
38020;DHT22;23829;51.350;17.286;2022-12-20T15:51:47;17.90;35.30
38020;DHT22;23829;51.350;17.286;2022-12-20T15:54:37;18.10;35.10
38020;DHT22;23829;51.350;17.286;2022-12-20T15:57:05;18.10;35.10
38020;DHT22;23829;51.350;17.286;2022-12-20T15:59:35;18.10;34.80
38020;DHT22;23829;51.350;17.286;2022-12-20T16:02:01;18.10;34.90
38020;DHT22;23829;51.350;17.286;2022-12-20T16:04:29;18.10;34.90
38020;DHT22;23829;51.350;17.286;2022-12-20T16:06:55;18.10;34.80
38020;DHT22;23829;51.350;17.286;2022-12-20T16:09:22;17.90;35.10
38020;DHT22;23829;51.350;17.286;2022-12-20T16:11:51;17.70;35.60
38020;DHT22;23829;51.350;17.286;2022-12-20T16:14:19;17.50;36.10
38020;DHT22;23829;51.350;17.286;2022-12-20T16:16:46;17.40;36.10
38020;DHT22;23829;51.350;17.286;2022-12-20T16:19:16;17.50;36.00
38020;DHT22;23829;51.350;17.286;2022-12-20T16:21:50;17.50;35.90
38020;DHT22;23829;51.350;17.286;2022-12-20T16:24:19;17.50;35.80
38020;DHT22;23829;51.350;17.286;2022-12-20T16:26:47;17.30;36.20
38020;DHT22;23829;51.350;17.286;2022-12-20T16:29:14;17.20;36.40
38020;DHT22;23829;51.350;17.286;2022-12-20T16:31:41;17.00;36.70
38020;DHT22;23829;51.350;17.286;2022-12-20T16:34:13;17.20;36.50
38020;DHT22;23829;51.350;17.286;2022-12-20T16:36:40;17.30;36.30
38020;DHT22;23829;51.350;17.286;2022-12-20T16:39:07;17.60;35.80
38020;DHT22;23829;51.350;17.286;2022-12-20T16:41:38;17.80;35.40
38020;DHT22;23829;51.350;17.286;2022-12-20T16:44:14;17.80;35.30
38020;DHT22;23829;51.350;17.286;2022-12-20T16:46:41;17.80;35.30
38020;DHT22;23829;51.350;17.286;2022-12-20T16:49:09;17.70;35.40
38020;DHT22;23829;51.350;17.286;2022-12-20T16:51:42;17.60;35.70
38020;DHT22;23829;51.350;17.286;2022-12-20T16:54:16;17.50;35.60
38020;DHT22;23829;51.350;17.286;2022-12-20T16:56:43;17.50;35.70
38020;DHT22;23829;51.350;17.286;2022-12-20T16:59:09;17.40;35.70
38020;DHT22;23829;51.350;17.286;2022-12-20T17:01:37;17.30;36.10
38020;DHT22;23829;51.350;17.286;2022-12-20T17:04:05;17.30;36.10
38020;DHT22;23829;51.350;17.286;2022-12-20T17:06:32;17.40;36.00
38020;DHT22;23829;51.350;17.286;2022-12-20T17:08:58;17.40;35.90
38020;DHT22;23829;51.350;17.286;2022-12-20T17:11:28;17.40;36.00
38020;DHT22;23829;51.350;17.286;2022-12-20T17:13:58;17.60;35.80
38020;DHT22;23829;51.350;17.286;2022-12-20T17:16:25;18.10;35.10
38020;DHT22;23829;51.350;17.286;2022-12-20T17:18:54;17.80;35.30
38020;DHT22;23829;51.350;17.286;2022-12-20T17:21:36;18.10;35.00
38020;DHT22;23829;51.350;17.286;2022-12-20T17:24:05;18.00;35.10
38020;DHT22;23829;51.350;17.286;2022-12-20T17:26:32;18.00;35.20
38020;DHT22;23829;51.350;17.286;2022-12-20T17:28:59;18.10;34.80
38020;DHT22;23829;51.350;17.286;2022-12-20T17:31:34;18.30;34.60
38020;DHT22;23829;51.350;17.286;2022-12-20T17:36:42;18.50;34.20
38020;DHT22;23829;51.350;17.286;2022-12-20T17:39:08;18.60;33.80
38020;DHT22;23829;51.350;17.286;2022-12-20T17:41:34;18.80;33.60
38020;DHT22;23829;51.350;17.286;2022-12-20T17:44:03;18.80;33.60
38020;DHT22;23829;51.350;17.286;2022-12-20T17:46:30;18.60;33.80